createdAt,value
2023-11-22T00:04:29.734Z,24.00
2023-11-22T00:14:32.884Z,22.42
2023-11-22T00:24:37.218Z,24.23
2023-11-22T00:34:40.668Z,22.60
2023-11-22T00:44:45.057Z,23.33
2023-11-22T00:54:47.989Z,22.85
2023-11-22T01:04:52.371Z,23.48
2023-11-22T01:14:55.461Z,24.60
2023-11-22T01:24:59.757Z,25.63
2023-11-22T01:35:03.128Z,26.13
2023-11-22T01:45:08.907Z,24.95
2023-11-22T01:55:12.244Z,25.63
2023-11-22T02:05:16.786Z,25.38
2023-11-22T02:15:19.827Z,25.92
2023-11-22T02:25:24.246Z,26.00
2023-11-22T02:35:28.043Z,25.50
2023-11-22T02:45:32.710Z,25.03
2023-11-22T02:55:35.797Z,25.25
2023-11-22T03:05:41.215Z,25.95
2023-11-22T03:15:44.420Z,25.23
2023-11-22T03:25:49.398Z,24.70
2023-11-22T03:35:52.389Z,23.42
2023-11-22T03:45:56.965Z,23.70
2023-11-22T04:06:04.210Z,22.88
2023-11-22T04:16:09.616Z,23.17
2023-11-22T04:26:14.493Z,21.55
2023-11-22T04:36:17.676Z,21.85
2023-11-22T04:46:22.054Z,20.17
2023-11-22T04:56:25.131Z,20.75
2023-11-22T05:06:30.328Z,18.45
2023-11-22T05:16:34.670Z,18.77
2023-11-22T05:26:39.434Z,21.60
2023-11-22T05:36:42.568Z,20.52
2023-11-22T05:46:46.929Z,20.55
2023-11-22T05:56:50.038Z,21.45
2023-11-22T06:06:54.476Z,20.75
2023-11-22T06:16:57.445Z,22.67
2023-11-22T06:27:01.893Z,22.70
2023-11-22T06:37:05.357Z,27.67
2023-11-22T06:47:10.013Z,33.72
2023-11-22T07:07:17.426Z,39.45
2023-11-22T07:17:20.513Z,43.47
2023-11-22T07:27:27.046Z,35.50
2023-11-22T07:37:30.085Z,36.30
2023-11-22T07:47:34.694Z,33.88
2023-11-22T08:07:42.368Z,29.90
2023-11-22T08:17:45.594Z,31.38
2023-11-22T08:27:50.015Z,33.22
2023-11-22T08:37:53.081Z,36.90
2023-11-22T08:47:57.471Z,35.92
2023-11-22T08:58:00.534Z,39.03
2023-11-22T09:08:12.681Z,38.90
2023-11-22T09:18:23.166Z,41.47
2023-11-22T09:28:28.181Z,42.37
2023-11-22T09:38:31.193Z,40.65
2023-11-22T09:48:35.869Z,41.40
2023-11-22T10:08:49.846Z,42.58
2023-11-22T10:18:52.973Z,43.15
2023-11-22T10:28:58.386Z,41.50
2023-11-22T10:39:03.031Z,39.90
2023-11-22T10:49:11.602Z,44.45
2023-11-22T10:59:16.208Z,44.78
2023-11-22T11:09:23.428Z,44.15
2023-11-22T11:19:28.540Z,42.95
2023-11-22T11:29:38.143Z,40.13
2023-11-22T11:39:41.274Z,40.95
2023-11-22T11:49:45.592Z,37.30
2023-11-22T11:59:50.303Z,34.27
2023-11-22T12:09:54.944Z,34.45
2023-11-22T12:20:12.591Z,28.90
2023-11-22T12:40:48.809Z,34.55
2023-11-22T12:50:52.400Z,33.75
2023-11-22T13:01:01.935Z,33.83
2023-11-22T13:11:05.804Z,36.90
2023-11-22T13:21:10.478Z,39.28
2023-11-22T13:31:13.767Z,47.00
2023-11-22T13:41:18.679Z,48.58
2023-11-22T13:51:22.165Z,43.33
2023-11-22T14:01:27.868Z,38.17
2023-11-22T14:11:32.904Z,40.95
2023-11-22T14:21:37.932Z,42.40
2023-11-22T14:31:52.261Z,43.30
2023-11-22T14:41:59.482Z,44.73
2023-11-22T14:52:02.638Z,43.78
2023-11-22T15:02:11.125Z,44.03
2023-11-22T15:12:20.162Z,40.22
2023-11-22T15:22:24.581Z,43.90
2023-11-22T15:32:27.768Z,36.53
2023-11-22T15:42:32.491Z,35.22
2023-11-22T16:02:40.062Z,35.47
2023-11-22T16:32:54.034Z,34.53
2023-11-22T16:42:58.482Z,35.67
2023-11-22T16:53:01.672Z,35.17
2023-11-22T17:03:07.320Z,32.08
2023-11-22T17:13:12.457Z,31.67
2023-11-22T17:23:17.265Z,30.02
2023-11-22T17:33:20.359Z,29.50
2023-11-22T17:43:25.696Z,27.42
2023-11-22T17:53:29.112Z,29.23
2023-11-22T18:03:33.650Z,27.52
2023-11-22T18:13:38.961Z,27.85
2023-11-22T18:23:44.425Z,26.83
2023-11-22T18:33:48.461Z,26.35
2023-11-22T18:43:52.885Z,26.73
2023-11-22T18:53:55.946Z,25.75
2023-11-22T19:04:00.517Z,25.27
2023-11-22T19:14:03.702Z,23.27
2023-11-22T19:24:08.397Z,24.40
2023-11-22T19:44:18.237Z,22.13
2023-11-22T19:54:22.027Z,21.98
2023-11-22T20:04:26.402Z,23.15
2023-11-22T20:14:29.486Z,22.33
2023-11-22T20:24:34.702Z,23.13
2023-11-22T20:34:37.847Z,23.08
2023-11-22T20:44:42.496Z,23.15
2023-11-22T20:54:45.546Z,23.88
2023-11-22T21:04:49.903Z,23.83
2023-11-22T21:14:52.937Z,22.47
2023-11-22T21:24:57.487Z,23.35
2023-11-22T21:35:00.640Z,23.88
2023-11-22T21:45:08.561Z,22.33
2023-11-22T21:55:12.890Z,22.20
2023-11-22T22:05:18.032Z,24.87
2023-11-22T22:15:21.753Z,21.58
2023-11-22T22:25:26.068Z,22.83
2023-11-22T22:35:29.043Z,25.00
2023-11-22T22:45:33.436Z,24.27
2023-11-22T23:05:41.669Z,25.13
2023-11-22T23:15:44.912Z,26.20
2023-11-22T23:25:49.219Z,25.48
2023-11-22T23:35:53.787Z,27.35
2023-11-22T23:45:58.694Z,26.58
2023-11-22T23:56:03.229Z,28.20
